createdAt,value
2023-05-16T00:01:48.332Z,100018.89
2023-05-16T00:04:13.402Z,100013.61
2023-05-16T00:06:38.411Z,100017.84
2023-05-16T00:09:04.706Z,100023.25
2023-05-16T00:11:29.835Z,100011.31
2023-05-16T00:13:54.636Z,100013.83
2023-05-16T00:16:30.237Z,100019.06
2023-05-16T00:17:47.733Z,100025.11
2023-05-16T00:20:19.147Z,100015.91
2023-05-16T00:21:28.770Z,100022.50
2023-05-16T00:23:55.118Z,100020.46
2023-05-16T00:26:27.633Z,100026.55
2023-05-16T00:28:52.419Z,100029.05
2023-05-16T00:31:19.488Z,100024.23
2023-05-16T00:33:51.277Z,100023.98
2023-05-16T00:35:00.689Z,100027.12
2023-05-16T00:37:25.405Z,100026.50
2023-05-16T00:39:53.797Z,100019.67
2023-05-16T00:42:20.824Z,100030.00
2023-05-16T00:44:48.074Z,100035.92
2023-05-16T00:45:58.221Z,100036.30
2023-05-16T00:48:23.962Z,100028.38
2023-05-16T00:50:50.664Z,100030.56
2023-05-16T00:53:14.736Z,100038.16
2023-05-16T00:55:42.708Z,100036.61
2023-05-16T00:58:09.181Z,100038.64
2023-05-16T01:00:59.855Z,100038.81
2023-05-16T01:03:24.478Z,100037.41
2023-05-16T01:05:51.609Z,100038.41
2023-05-16T01:08:18.694Z,100025.98
2023-05-16T01:13:49.180Z,100028.30
2023-05-16T01:19:38.839Z,100025.74
2023-05-16T01:25:47.705Z,100023.26
2023-05-16T01:28:17.739Z,100024.89
2023-05-16T01:30:41.739Z,100029.08
2023-05-16T01:33:05.938Z,100038.95
2023-05-16T01:35:32.813Z,100030.08
2023-05-16T01:36:56.745Z,100030.14
2023-05-16T01:39:34.433Z,100027.83
2023-05-16T01:42:16.601Z,100026.58
2023-05-16T01:44:59.625Z,100021.43
2023-05-16T01:47:30.834Z,100027.89
2023-05-16T01:51:34.736Z,100025.42
2023-05-16T01:54:07.418Z,100029.45
2023-05-16T01:56:39.827Z,100030.64
2023-05-16T01:59:27.686Z,100027.52
2023-05-16T02:01:55.718Z,100022.39
2023-05-16T02:04:19.308Z,100027.26
2023-05-16T02:06:44.549Z,100023.28
2023-05-16T02:09:10.014Z,100016.30
2023-05-16T02:11:38.880Z,100022.88
2023-05-16T02:14:06.100Z,100016.50
2023-05-16T02:16:31.313Z,100021.66
2023-05-16T02:17:40.124Z,100023.16
2023-05-16T02:20:08.813Z,100017.42
2023-05-16T02:22:33.322Z,100010.89
2023-05-16T02:23:45.708Z,100015.78
2023-05-16T02:26:11.945Z,100014.09
2023-05-16T02:28:35.915Z,100014.52
2023-05-16T02:31:03.993Z,100014.81
2023-05-16T02:33:29.286Z,100015.41
2023-05-16T02:35:53.627Z,100014.84
2023-05-16T02:40:51.763Z,100013.27
2023-05-16T02:43:23.790Z,100014.14
2023-05-16T02:45:49.665Z,100013.27
2023-05-16T02:48:14.954Z,100017.13
2023-05-16T02:50:40.674Z,100019.84
2023-05-16T02:51:52.037Z,100020.84
2023-05-16T02:54:18.851Z,100022.81
2023-05-16T02:57:13.611Z,100021.24
2023-05-16T02:59:38.869Z,100022.12
2023-05-16T03:02:04.632Z,100021.39
2023-05-16T03:04:32.314Z,100027.54
2023-05-16T03:06:59.085Z,100017.98
2023-05-16T03:09:25.205Z,100024.40
2023-05-16T03:11:50.309Z,100021.98
2023-05-16T03:14:16.622Z,100017.70
2023-05-16T03:16:43.996Z,100020.56
2023-05-16T03:19:07.821Z,100023.42
2023-05-16T03:21:36.869Z,100014.41
2023-05-16T03:24:04.825Z,100019.14
2023-05-16T03:26:28.521Z,100014.71
2023-05-16T03:28:52.426Z,100014.71
2023-05-16T03:31:19.961Z,100012.99
2023-05-16T03:33:46.326Z,100017.85
2023-05-16T03:36:13.204Z,100012.58
2023-05-16T03:38:39.119Z,100011.01
2023-05-16T03:41:02.803Z,100011.70
2023-05-16T03:43:30.031Z,100011.70
2023-05-16T03:45:53.570Z,100008.30
2023-05-16T03:48:21.160Z,100012.00
2023-05-16T03:50:45.612Z,100013.72
2023-05-16T03:53:11.753Z,100014.56
2023-05-16T03:55:37.920Z,100011.16
2023-05-16T03:58:03.576Z,100017.57
2023-05-16T04:00:28.260Z,100015.85
2023-05-16T04:02:53.229Z,100027.83
2023-05-16T04:05:17.357Z,100025.12
2023-05-16T04:07:42.853Z,100023.28
2023-05-16T04:10:10.586Z,100028.55
2023-05-16T04:12:39.419Z,100033.69
2023-05-16T04:15:06.250Z,100030.38
2023-05-16T04:17:31.598Z,100031.80
2023-05-16T04:19:58.010Z,100041.09
2023-05-16T04:22:42.982Z,100036.98
2023-05-16T04:25:08.784Z,100039.53
2023-05-16T04:26:18.294Z,100042.23
2023-05-16T04:28:43.030Z,100041.95
2023-05-16T04:31:08.458Z,100049.09
2023-05-16T04:33:32.506Z,100056.35
2023-05-16T04:35:59.131Z,100053.38
2023-05-16T04:38:25.464Z,100050.66
2023-05-16T04:40:53.334Z,100052.92
2023-05-16T04:43:20.163Z,100052.48
2023-05-16T04:45:45.067Z,100061.61
2023-05-16T04:48:11.486Z,100052.88
2023-05-16T04:50:36.609Z,100059.57
2023-05-16T04:51:46.153Z,100068.45
2023-05-16T04:54:10.296Z,100060.83
2023-05-16T04:56:34.866Z,100068.09
2023-05-16T04:58:58.796Z,100061.48
2023-05-16T05:00:11.308Z,100060.53
2023-05-16T05:01:23.092Z,100061.91
2023-05-16T05:02:32.260Z,100059.77
2023-05-16T05:04:57.282Z,100055.70
2023-05-16T05:07:22.035Z,100054.41
2023-05-16T05:08:31.087Z,100061.59
2023-05-16T05:09:40.710Z,100061.59
2023-05-16T05:10:50.750Z,100055.30
2023-05-16T05:13:15.409Z,100057.12
2023-05-16T05:15:40.030Z,100058.68
2023-05-16T05:18:04.687Z,100062.80
2023-05-16T05:19:15.080Z,100060.14
2023-05-16T05:21:40.075Z,100065.47
2023-05-16T05:22:50.727Z,100065.37
2023-05-16T05:25:39.252Z,100061.48
2023-05-16T05:28:05.121Z,100062.73
2023-05-16T05:30:32.349Z,100071.44
2023-05-16T05:31:41.826Z,100070.47
2023-05-16T05:32:51.529Z,100067.75
2023-05-16T05:34:00.837Z,100070.31
2023-05-16T05:36:24.840Z,100069.26
2023-05-16T05:38:48.746Z,100068.26
2023-05-16T05:41:13.920Z,100064.23
2023-05-16T05:43:38.328Z,100061.92
2023-05-16T05:46:02.384Z,100053.61
2023-05-16T05:48:28.173Z,100065.01
2023-05-16T05:50:52.870Z,100075.59
2023-05-16T05:53:16.932Z,100077.84
2023-05-16T05:55:43.146Z,100076.69
2023-05-16T05:56:52.982Z,100080.16
2023-05-16T05:59:18.811Z,100077.05
2023-05-16T06:01:44.653Z,100086.92
2023-05-16T06:04:14.412Z,100087.48
2023-05-16T06:06:40.330Z,100092.05
2023-05-16T06:07:49.405Z,100093.98
2023-05-16T06:10:17.217Z,100088.17
2023-05-16T06:12:41.451Z,100084.45
2023-05-16T06:15:09.974Z,100093.32
2023-05-16T06:17:35.239Z,100097.72
2023-05-16T06:20:00.735Z,100088.56
2023-05-16T06:22:24.576Z,100098.44
2023-05-16T06:24:48.686Z,100098.44
2023-05-16T06:25:59.230Z,100099.52
2023-05-16T06:27:09.557Z,100102.07
2023-05-16T06:28:19.480Z,100103.95
2023-05-16T06:30:42.938Z,100106.91
2023-05-16T06:31:51.617Z,100104.38
2023-05-16T06:33:01.169Z,100101.67
2023-05-16T06:35:27.317Z,100104.63
2023-05-16T06:37:52.255Z,100101.23
2023-05-16T06:40:18.658Z,100101.07
2023-05-16T06:42:42.595Z,100106.20
2023-05-16T06:43:53.203Z,100104.38
2023-05-16T06:46:17.456Z,100097.04
2023-05-16T06:48:41.446Z,100092.61
2023-05-16T06:51:06.441Z,100094.32
2023-05-16T06:53:30.636Z,100090.89
2023-05-16T06:55:55.287Z,100099.91
2023-05-16T06:58:19.938Z,100084.20
2023-05-16T07:00:43.961Z,100089.95
2023-05-16T07:03:07.859Z,100092.67
2023-05-16T07:04:18.011Z,100095.77
2023-05-16T07:06:44.401Z,100082.72
2023-05-16T07:09:11.763Z,100090.77
2023-05-16T07:11:36.358Z,100068.95
2023-05-16T07:12:46.223Z,100076.31
2023-05-16T07:15:12.875Z,100080.44
2023-05-16T07:16:22.310Z,100079.89
2023-05-16T07:17:32.214Z,100075.48
2023-05-16T07:19:56.895Z,100073.44
2023-05-16T07:22:21.655Z,100079.03
2023-05-16T07:23:30.926Z,100079.35
2023-05-16T07:24:39.899Z,100085.94
2023-05-16T07:27:04.655Z,100075.90
2023-05-16T07:28:14.328Z,100080.35
2023-05-16T07:29:23.656Z,100079.20
2023-05-16T07:31:50.211Z,100070.25
2023-05-16T07:34:16.956Z,100071.38
2023-05-16T07:36:41.109Z,100067.48
2023-05-16T07:39:05.328Z,100079.22
2023-05-16T07:41:34.799Z,100077.91
2023-05-16T07:44:01.001Z,100072.00
2023-05-16T07:46:26.087Z,100078.16
2023-05-16T07:47:35.598Z,100082.62
2023-05-16T07:50:00.692Z,100078.37
2023-05-16T07:52:25.528Z,100074.66
2023-05-16T07:54:55.461Z,100078.37
2023-05-16T07:57:22.736Z,100085.36
2023-05-16T07:59:47.339Z,100087.23
2023-05-16T08:02:13.196Z,100088.23
2023-05-16T08:04:37.686Z,100091.67
2023-05-16T08:07:05.510Z,100093.52
2023-05-16T08:08:15.023Z,100099.89
2023-05-16T08:10:38.589Z,100094.08
2023-05-16T08:13:04.010Z,100105.63
2023-05-16T08:14:13.856Z,100096.55
2023-05-16T08:16:37.814Z,100095.16
2023-05-16T08:17:47.799Z,100097.11
2023-05-16T08:18:57.489Z,100101.51
2023-05-16T08:21:23.872Z,100101.31
2023-05-16T08:23:50.888Z,100102.16
2023-05-16T08:25:01.054Z,100101.39
2023-05-16T08:27:27.801Z,100100.28
2023-05-16T08:28:36.708Z,100101.23
2023-05-16T08:31:00.257Z,100089.97
2023-05-16T08:32:12.474Z,100100.75
2023-05-16T08:33:22.216Z,100106.03
2023-05-16T08:34:49.927Z,100100.44
2023-05-16T08:37:17.395Z,100102.48
2023-05-16T08:39:42.703Z,100094.85
2023-05-16T08:42:07.988Z,100109.16
2023-05-16T08:44:33.437Z,100104.56
2023-05-16T08:48:24.974Z,100112.12
2023-05-16T08:51:02.631Z,100113.88
2023-05-16T08:55:09.295Z,100140.52
2023-05-16T08:57:25.494Z,100129.66
2023-05-16T08:58:34.990Z,100128.84
2023-05-16T09:01:03.347Z,100114.50
2023-05-16T09:03:30.086Z,100114.10
2023-05-16T09:04:41.951Z,100114.16
2023-05-16T09:07:07.757Z,100107.66
2023-05-16T09:09:32.470Z,100110.85
2023-05-16T09:11:58.551Z,100105.55
2023-05-16T09:14:23.369Z,100103.55
2023-05-16T09:17:07.142Z,100102.39
2023-05-16T09:18:17.519Z,100088.87
2023-05-16T09:20:46.533Z,100089.48
2023-05-16T09:21:56.606Z,100083.27
2023-05-16T09:24:24.195Z,100071.34
2023-05-16T09:26:49.249Z,100075.45
2023-05-16T09:29:17.303Z,100067.83
2023-05-16T09:31:50.645Z,100077.54
2023-05-16T09:34:15.500Z,100071.11
2023-05-16T09:35:42.552Z,100071.02
2023-05-16T09:36:37.389Z,100074.73
2023-05-16T09:37:48.282Z,100068.30
2023-05-16T09:40:14.407Z,100070.63
2023-05-16T09:42:40.393Z,100069.47
2023-05-16T09:43:50.995Z,100077.54
2023-05-16T09:46:20.841Z,100066.11
2023-05-16T09:48:46.610Z,100075.66
2023-05-16T09:51:13.955Z,100067.74
2023-05-16T09:53:41.776Z,100070.69
2023-05-16T09:56:11.104Z,100061.79
2023-05-16T09:58:43.767Z,100067.42
2023-05-16T09:59:52.643Z,100070.11
2023-05-16T10:01:03.797Z,100078.95
2023-05-16T10:02:12.985Z,100075.91
2023-05-16T10:04:38.831Z,100073.32
2023-05-16T10:05:47.797Z,100080.41
2023-05-16T10:08:14.834Z,100075.09
2023-05-16T10:09:25.349Z,100071.31
2023-05-16T10:11:53.305Z,100079.72
2023-05-16T10:14:21.681Z,100078.61
2023-05-16T10:16:50.078Z,100082.44
2023-05-16T10:18:00.233Z,100083.94
2023-05-16T10:20:26.633Z,100080.33
2023-05-16T10:22:56.453Z,100068.05
2023-05-16T10:24:09.956Z,100071.56
2023-05-16T10:26:56.802Z,100074.83
2023-05-16T10:29:27.487Z,100071.66
2023-05-16T10:32:16.202Z,100065.05
2023-05-16T10:33:25.634Z,100077.05
2023-05-16T10:35:52.338Z,100061.95
2023-05-16T10:38:20.222Z,100063.66
2023-05-16T10:40:48.089Z,100067.61
2023-05-16T10:43:24.319Z,100060.31
2023-05-16T10:45:55.690Z,100068.52
2023-05-16T10:48:29.533Z,100069.91
2023-05-16T10:50:56.821Z,100078.75
2023-05-16T10:53:34.604Z,100059.86
2023-05-16T10:56:05.531Z,100067.66
2023-05-16T10:57:22.372Z,100064.37
2023-05-16T10:58:41.454Z,100068.10
2023-05-16T10:59:52.064Z,100070.28
2023-05-16T11:01:14.477Z,100070.44
2023-05-16T11:04:01.663Z,100071.16
2023-05-16T11:05:12.893Z,100071.56
2023-05-16T11:07:42.100Z,100068.84
2023-05-16T11:10:30.727Z,100071.66
2023-05-16T11:11:52.812Z,100083.30
2023-05-16T11:14:47.038Z,100067.36
2023-05-16T11:17:34.599Z,100069.05
2023-05-16T11:20:11.208Z,100065.80
2023-05-16T11:22:40.974Z,100065.97
2023-05-16T11:25:43.339Z,100065.64
2023-05-16T11:26:54.967Z,100075.91
2023-05-16T11:29:20.625Z,100070.70
2023-05-16T11:31:45.618Z,100073.09
2023-05-16T11:34:11.152Z,100069.20
2023-05-16T11:35:21.430Z,100074.06
2023-05-16T11:37:46.656Z,100059.04
2023-05-16T11:40:18.682Z,100063.61
2023-05-16T11:42:49.904Z,100061.37
2023-05-16T11:45:20.287Z,100062.38
2023-05-16T11:47:51.361Z,100065.80
2023-05-16T11:50:20.449Z,100063.09
2023-05-16T11:54:09.616Z,100068.53
2023-05-16T11:56:43.341Z,100075.36
2023-05-16T11:59:11.162Z,100078.24
2023-05-16T12:01:42.380Z,100077.05
2023-05-16T12:05:35.530Z,100080.48
2023-05-16T12:08:19.223Z,100070.27
2023-05-16T12:10:49.899Z,100075.88
2023-05-16T12:14:51.402Z,100070.60
2023-05-16T12:17:21.980Z,100064.31
2023-05-16T12:19:46.640Z,100063.92
2023-05-16T12:22:20.513Z,100058.48
2023-05-16T12:24:48.635Z,100071.60
2023-05-16T12:27:12.996Z,100063.44
2023-05-16T12:29:37.310Z,100075.03
2023-05-16T12:32:05.407Z,100074.71
2023-05-16T12:33:15.806Z,100067.49
2023-05-16T12:35:46.794Z,100071.50
2023-05-16T12:38:13.602Z,100075.77
2023-05-16T12:40:39.649Z,100075.61
2023-05-16T12:43:22.422Z,100076.32
2023-05-16T12:45:57.907Z,100075.83
2023-05-16T12:47:14.533Z,100074.61
2023-05-16T12:50:01.826Z,100067.34
2023-05-16T12:52:30.782Z,100063.61
2023-05-16T12:55:05.649Z,100060.43
2023-05-16T12:57:32.529Z,100057.37
2023-05-16T12:59:58.569Z,100065.05
2023-05-16T13:02:25.374Z,100052.66
2023-05-16T13:03:36.486Z,100055.33
2023-05-16T13:04:45.228Z,100047.00
2023-05-16T13:07:08.704Z,100053.70
2023-05-16T13:09:33.341Z,100058.14
2023-05-16T13:11:58.691Z,100054.25
2023-05-16T13:13:08.412Z,100058.97
2023-05-16T13:15:32.866Z,100050.52
2023-05-16T13:18:03.664Z,100043.36
2023-05-16T13:20:28.898Z,100046.08
2023-05-16T13:21:38.005Z,100049.94
2023-05-16T13:24:02.819Z,100053.08
2023-05-16T13:26:27.418Z,100065.34
2023-05-16T13:28:52.785Z,100065.52
2023-05-16T13:31:17.236Z,100071.80
2023-05-16T13:33:43.323Z,100060.37
2023-05-16T13:34:53.620Z,100069.86
2023-05-16T13:36:02.658Z,100069.16
2023-05-16T13:37:12.100Z,100063.38
2023-05-16T13:39:37.607Z,100062.95
2023-05-16T13:42:03.293Z,100058.19
2023-05-16T13:44:29.972Z,100074.36
2023-05-16T13:46:58.254Z,100068.58
2023-05-16T13:49:23.759Z,100060.58
2023-05-16T13:51:47.624Z,100054.29
2023-05-16T13:54:12.405Z,100054.63
2023-05-16T13:56:36.514Z,100053.41
2023-05-16T13:59:06.975Z,100060.49
2023-05-16T14:01:30.878Z,100061.83
2023-05-16T14:02:41.652Z,100067.55
2023-05-16T14:03:50.648Z,100063.99
2023-05-16T14:05:01.627Z,100065.55
2023-05-16T14:06:12.521Z,100063.66
2023-05-16T14:08:36.313Z,100056.38
2023-05-16T14:10:59.964Z,100059.27
2023-05-16T14:13:24.132Z,100056.38
2023-05-16T14:15:49.080Z,100059.32
2023-05-16T14:18:14.657Z,100060.19
2023-05-16T14:20:50.269Z,100052.70
2023-05-16T14:21:59.923Z,100057.72
2023-05-16T14:24:24.396Z,100056.77
2023-05-16T14:26:48.213Z,100054.20
2023-05-16T14:29:13.268Z,100057.26
2023-05-16T14:31:38.058Z,100053.16
2023-05-16T14:34:02.554Z,100058.59
2023-05-16T14:36:26.920Z,100058.97
2023-05-16T14:38:50.538Z,100058.10
2023-05-16T14:41:16.979Z,100054.37
2023-05-16T14:42:27.080Z,100057.05
2023-05-16T14:44:53.385Z,100053.53
2023-05-16T14:47:17.283Z,100046.04
2023-05-16T14:49:41.602Z,100054.04
2023-05-16T14:52:08.048Z,100054.37
2023-05-16T14:54:31.926Z,100051.65
2023-05-16T14:56:56.178Z,100057.94
2023-05-16T14:59:20.504Z,100051.98
2023-05-16T15:01:46.326Z,100043.81
2023-05-16T15:04:11.419Z,100046.38
2023-05-16T15:06:35.326Z,100050.64
2023-05-16T15:09:11.672Z,100046.87
2023-05-16T15:10:20.978Z,100047.16
2023-05-16T15:12:46.081Z,100048.80
2023-05-16T15:15:13.537Z,100048.30
2023-05-16T15:17:39.437Z,100047.66
2023-05-16T15:18:48.215Z,100052.91
2023-05-16T15:19:57.673Z,100055.46
2023-05-16T15:21:06.733Z,100050.02
2023-05-16T15:23:31.618Z,100054.66
2023-05-16T15:25:55.992Z,100055.33
2023-05-16T15:28:22.586Z,100053.79
2023-05-16T15:30:47.407Z,100050.22
2023-05-16T15:33:12.147Z,100046.49
2023-05-16T15:34:20.834Z,100052.73
2023-05-16T15:35:30.621Z,100054.45
2023-05-16T15:36:41.126Z,100058.89
2023-05-16T15:39:07.762Z,100049.28
2023-05-16T15:44:02.076Z,100046.16
2023-05-16T15:46:30.903Z,100042.59
2023-05-16T15:47:41.551Z,100042.34
2023-05-16T15:50:07.516Z,100042.05
2023-05-16T15:52:32.416Z,100037.78
2023-05-16T15:53:41.573Z,100046.92
2023-05-16T15:56:06.821Z,100044.77
2023-05-16T15:58:32.270Z,100046.66
2023-05-16T16:00:56.720Z,100045.78
2023-05-16T16:03:21.648Z,100041.34
2023-05-16T16:05:47.602Z,100046.95
2023-05-16T16:08:11.359Z,100039.66
2023-05-16T16:10:56.083Z,100044.41
2023-05-16T16:13:22.319Z,100044.06
2023-05-16T16:15:55.463Z,100042.73
2023-05-16T16:18:21.918Z,100032.70
2023-05-16T16:20:49.661Z,100040.00
2023-05-16T16:23:13.657Z,100047.91
2023-05-16T16:25:39.789Z,100044.27
2023-05-16T16:28:03.982Z,100049.89
2023-05-16T16:30:27.784Z,100043.94
2023-05-16T16:32:52.594Z,100039.50
2023-05-16T16:34:01.856Z,100055.25
2023-05-16T16:36:26.243Z,100047.83
2023-05-16T16:38:51.510Z,100035.90
2023-05-16T16:41:16.076Z,100039.97
2023-05-16T16:42:26.696Z,100035.52
2023-05-16T16:43:39.632Z,100044.53
2023-05-16T16:44:48.633Z,100038.25
2023-05-16T16:45:57.821Z,100043.69
2023-05-16T16:48:23.826Z,100042.39
2023-05-16T16:51:06.998Z,100052.95
2023-05-16T16:53:31.948Z,100045.31
2023-05-16T16:54:41.807Z,100050.72
2023-05-16T16:57:06.342Z,100049.42
2023-05-16T16:58:15.511Z,100058.73
2023-05-16T17:00:40.376Z,100053.02
2023-05-16T17:03:08.346Z,100058.30
2023-05-16T17:05:32.098Z,100047.40
2023-05-16T17:07:57.215Z,100051.84
2023-05-16T17:09:06.499Z,100053.62
2023-05-16T17:11:31.189Z,100055.41
2023-05-16T17:13:59.453Z,100048.95
2023-05-16T17:16:24.684Z,100048.61
2023-05-16T17:17:34.246Z,100053.34
2023-05-16T17:19:58.948Z,100054.90
2023-05-16T17:22:24.062Z,100052.04
2023-05-16T17:23:33.171Z,100053.18
2023-05-16T17:25:57.153Z,100051.67
2023-05-16T17:28:21.867Z,100044.51
2023-05-16T17:30:46.529Z,100047.40
2023-05-16T17:31:56.483Z,100057.69
2023-05-16T17:33:06.031Z,100056.84
2023-05-16T17:34:15.271Z,100047.13
2023-05-16T17:35:25.304Z,100052.91
2023-05-16T17:37:51.860Z,100044.94
2023-05-16T17:40:18.354Z,100044.91
2023-05-16T17:42:44.339Z,100045.58
2023-05-16T17:43:54.211Z,100051.16
2023-05-16T17:46:20.197Z,100046.75
2023-05-16T17:48:44.743Z,100056.97
2023-05-16T17:51:09.111Z,100054.41
2023-05-16T17:52:21.562Z,100056.38
2023-05-16T17:53:30.131Z,100055.38
2023-05-16T17:54:38.871Z,100060.83
2023-05-16T17:55:49.177Z,100059.11
2023-05-16T17:58:15.428Z,100058.14
2023-05-16T18:00:42.046Z,100058.14
2023-05-16T18:01:51.771Z,100059.27
2023-05-16T18:03:01.574Z,100061.16
2023-05-16T18:05:25.177Z,100063.08
2023-05-16T18:07:53.860Z,100065.94
2023-05-16T18:10:21.014Z,100069.37
2023-05-16T18:12:45.989Z,100066.64
2023-05-16T18:13:54.936Z,100063.33
2023-05-16T18:15:05.314Z,100069.81
2023-05-16T18:17:29.212Z,100067.14
2023-05-16T18:19:53.949Z,100061.53
2023-05-16T18:21:05.273Z,100067.94
2023-05-16T18:22:14.934Z,100063.50
2023-05-16T18:24:39.767Z,100064.09
2023-05-16T18:27:04.640Z,100062.53
2023-05-16T18:29:29.698Z,100066.43
2023-05-16T18:31:56.765Z,100062.00
2023-05-16T18:34:21.438Z,100060.98
2023-05-16T18:35:30.643Z,100068.59
2023-05-16T18:37:55.064Z,100066.59
2023-05-16T18:40:19.311Z,100074.05
2023-05-16T18:42:45.123Z,100070.66
2023-05-16T18:45:09.673Z,100076.43
2023-05-16T18:47:33.848Z,100076.59
2023-05-16T18:49:59.852Z,100079.48
2023-05-16T18:51:09.572Z,100081.77
2023-05-16T18:52:19.337Z,100089.09
2023-05-16T18:53:28.005Z,100087.38
2023-05-16T18:54:38.355Z,100081.37
2023-05-16T18:57:06.340Z,100076.16
2023-05-16T18:59:31.976Z,100081.05
2023-05-16T19:01:56.095Z,100077.98
2023-05-16T19:03:05.199Z,100085.53
2023-05-16T19:05:29.565Z,100079.31
2023-05-16T19:06:39.810Z,100093.17
2023-05-16T19:09:03.807Z,100089.64
2023-05-16T19:11:29.291Z,100087.41
2023-05-16T19:12:38.892Z,100088.51
2023-05-16T19:15:02.616Z,100075.14
2023-05-16T19:17:26.818Z,100077.47
2023-05-16T19:19:52.569Z,100077.79
2023-05-16T19:22:16.424Z,100073.35
2023-05-16T19:24:40.071Z,100074.80
2023-05-16T19:27:04.477Z,100082.28
2023-05-16T19:29:30.094Z,100075.13
2023-05-16T19:30:40.172Z,100077.06
2023-05-16T19:31:48.953Z,100078.25
2023-05-16T19:34:14.184Z,100075.73
2023-05-16T19:36:38.108Z,100072.34
2023-05-16T19:39:02.488Z,100075.22
2023-05-16T19:41:27.421Z,100078.38
2023-05-16T19:42:37.454Z,100080.50
2023-05-16T19:43:46.594Z,100080.81
2023-05-16T19:46:10.801Z,100079.18
2023-05-16T19:48:36.132Z,100083.22
2023-05-16T19:51:00.958Z,100077.37
2023-05-16T19:53:28.007Z,100075.66
2023-05-16T19:55:53.298Z,100077.70
2023-05-16T19:57:02.835Z,100084.20
2023-05-16T19:59:26.557Z,100075.30
2023-05-16T20:01:53.103Z,100074.58
2023-05-16T20:04:17.860Z,100072.02
2023-05-16T20:06:41.899Z,100076.61
2023-05-16T20:09:10.803Z,100071.50
2023-05-16T20:10:21.920Z,100081.72
2023-05-16T20:12:45.516Z,100070.94
2023-05-16T20:15:12.112Z,100073.66
2023-05-16T20:17:36.935Z,100074.34
2023-05-16T20:20:01.498Z,100072.66
2023-05-16T20:22:26.410Z,100062.62
2023-05-16T20:24:52.342Z,100075.21
2023-05-16T20:27:17.148Z,100077.21
2023-05-16T20:29:41.575Z,100081.64
2023-05-16T20:32:06.504Z,100078.09
2023-05-16T20:34:33.413Z,100067.50
2023-05-16T20:36:58.585Z,100074.97
2023-05-16T20:39:23.774Z,100073.25
2023-05-16T20:41:48.888Z,100071.00
2023-05-16T20:44:15.056Z,100066.88
2023-05-16T20:46:41.717Z,100066.16
2023-05-16T20:49:06.635Z,100061.61
2023-05-16T20:51:32.813Z,100063.61
2023-05-16T20:53:56.318Z,100062.92
2023-05-16T20:56:21.967Z,100062.92
2023-05-16T20:57:43.698Z,100056.67
2023-05-16T20:58:52.645Z,100061.27
2023-05-16T21:01:17.197Z,100061.20
2023-05-16T21:02:27.920Z,100060.02
2023-05-16T21:04:52.835Z,100051.13
2023-05-16T21:07:17.297Z,100059.27
2023-05-16T21:09:44.117Z,100055.98
2023-05-16T21:12:10.115Z,100057.70
2023-05-16T21:14:34.607Z,100055.27
2023-05-16T21:16:58.039Z,100062.58
2023-05-16T21:19:23.437Z,100057.14
2023-05-16T21:21:47.246Z,100053.27
2023-05-16T21:22:56.367Z,100054.17
2023-05-16T21:24:06.827Z,100054.89
2023-05-16T21:26:32.766Z,100052.27
2023-05-16T21:28:57.150Z,100060.58
2023-05-16T21:31:23.668Z,100048.84
2023-05-16T21:32:33.322Z,100060.63
2023-05-16T21:35:00.536Z,100050.55
2023-05-16T21:36:09.421Z,100055.20
2023-05-16T21:37:18.380Z,100054.33
2023-05-16T21:39:42.151Z,100049.84
2023-05-16T21:42:10.646Z,100051.71
2023-05-16T21:44:35.248Z,100053.43
2023-05-16T21:45:44.405Z,100053.61
2023-05-16T21:46:54.918Z,100060.73
2023-05-16T21:48:03.933Z,100058.01
2023-05-16T21:50:28.115Z,100056.98
2023-05-16T21:52:53.357Z,100049.56
2023-05-16T21:54:03.616Z,100054.17
2023-05-16T21:55:13.918Z,100057.77
2023-05-16T21:56:27.391Z,100049.62
2023-05-16T21:58:51.303Z,100053.27
2023-05-16T22:01:17.334Z,100051.55
2023-05-16T22:02:27.002Z,100052.58
2023-05-16T22:04:52.266Z,100047.00
2023-05-16T22:06:01.810Z,100054.17
2023-05-16T22:07:11.827Z,100050.62
2023-05-16T22:09:36.245Z,100051.24
2023-05-16T22:12:00.617Z,100045.81
2023-05-16T22:13:10.996Z,100051.45
2023-05-16T22:14:22.211Z,100055.89
2023-05-16T22:15:31.356Z,100055.05
2023-05-16T22:17:58.020Z,100050.41
2023-05-16T22:20:23.599Z,100057.70
2023-05-16T22:21:32.674Z,100056.89
2023-05-16T22:22:41.551Z,100059.61
2023-05-16T22:25:09.750Z,100056.30
2023-05-16T22:27:38.800Z,100060.02
2023-05-16T22:30:04.308Z,100050.30
2023-05-16T22:32:29.232Z,100050.62
2023-05-16T22:33:38.304Z,100057.06
2023-05-16T22:34:47.599Z,100057.06
2023-05-16T22:35:56.176Z,100054.35
2023-05-16T22:38:23.498Z,100052.05
2023-05-16T22:40:48.915Z,100060.50
2023-05-16T22:43:16.534Z,100056.07
2023-05-16T22:44:25.993Z,100053.41
2023-05-16T22:46:49.286Z,100054.05
2023-05-16T22:47:58.506Z,100062.23
2023-05-16T22:50:22.414Z,100055.91
2023-05-16T22:52:48.159Z,100055.91
2023-05-16T22:53:57.879Z,100058.84
2023-05-16T22:56:24.482Z,100058.47
2023-05-16T22:57:35.113Z,100061.24
2023-05-16T22:58:44.503Z,100056.81
2023-05-16T23:01:08.514Z,100054.05
2023-05-16T23:02:17.876Z,100061.39
2023-05-16T23:04:44.943Z,100055.91
2023-05-16T23:07:10.438Z,100061.34
2023-05-16T23:08:22.213Z,100055.24
2023-05-16T23:10:45.645Z,100057.06
2023-05-16T23:13:10.289Z,100066.21
2023-05-16T23:15:34.778Z,100062.96
2023-05-16T23:16:43.678Z,100080.29
2023-05-16T23:19:09.384Z,100067.39
2023-05-16T23:20:18.365Z,100072.98
2023-05-16T23:21:28.057Z,100067.56
2023-05-16T23:22:37.689Z,100070.13
2023-05-16T23:25:02.911Z,100062.65
2023-05-16T23:27:29.029Z,100071.95
2023-05-16T23:29:52.935Z,100067.39
2023-05-16T23:32:39.705Z,100070.11
2023-05-16T23:35:05.323Z,100068.39
2023-05-16T23:36:14.576Z,100077.58
2023-05-16T23:38:45.073Z,100079.55
2023-05-16T23:41:28.606Z,100077.69
2023-05-16T23:43:54.782Z,100072.41
2023-05-16T23:46:19.432Z,100078.83
2023-05-16T23:47:28.888Z,100077.00
2023-05-16T23:48:40.514Z,100084.30
2023-05-16T23:49:49.502Z,100081.59
2023-05-16T23:52:13.805Z,100076.96
2023-05-16T23:54:41.061Z,100073.25
2023-05-16T23:57:05.527Z,100069.39
2023-05-16T23:58:14.542Z,100080.44
